sensor_id;sensor_type;location;lat;lon;timestamp;pressure;altitude;pressure_sealevel;temperature;humidity
65546;BME280;52177;55.968;37.498;2023-07-13T00:00:10;98789.66;;;12.92;76.83
65546;BME280;52177;55.968;37.498;2023-07-13T00:00:42;98785.34;;;12.91;76.80
65546;BME280;52177;55.968;37.498;2023-07-13T00:01:14;98785.34;;;12.91;76.85
65546;BME280;52177;55.968;37.498;2023-07-13T00:01:44;98790.72;;;12.91;76.78
65546;BME280;52177;55.968;37.498;2023-07-13T00:02:16;98782.88;;;12.89;76.83
65546;BME280;52177;55.968;37.498;2023-07-13T00:02:47;98782.06;;;12.89;76.79
65546;BME280;52177;55.968;37.498;2023-07-13T00:03:17;98785.56;;;12.89;76.75
65546;BME280;52177;55.968;37.498;2023-07-13T00:03:47;98785.78;;;12.88;76.76
65546;BME280;52177;55.968;37.498;2023-07-13T00:04:20;98786.63;;;12.88;76.81
65546;BME280;52177;55.968;37.498;2023-07-13T00:04:50;98783.13;;;12.88;76.85
65546;BME280;52177;55.968;37.498;2023-07-13T00:05:23;98785.56;;;12.89;76.75
65546;BME280;52177;55.968;37.498;2023-07-13T00:06:00;98782.06;;;12.89;76.70
65546;BME280;52177;55.968;37.498;2023-07-13T00:06:31;98781.06;;;12.90;76.58
65546;BME280;52177;55.968;37.498;2023-07-13T00:07:03;98787.44;;;12.89;76.63
65546;BME280;52177;55.968;37.498;2023-07-13T00:07:34;98781.47;;;12.87;76.53
65546;BME280;52177;55.968;37.498;2023-07-13T00:08:05;98782.50;;;12.86;76.80
65546;BME280;52177;55.968;37.498;2023-07-13T00:08:35;98781.69;;;12.85;76.93
65546;BME280;52177;55.968;37.498;2023-07-13T00:09:06;98782.72;;;12.84;77.04
65546;BME280;52177;55.968;37.498;2023-07-13T00:09:36;98781.91;;;12.84;76.90
65546;BME280;52177;55.968;37.498;2023-07-13T00:10:08;98780.03;;;12.84;76.96
65546;BME280;52177;55.968;37.498;2023-07-13T00:10:40;98787.25;;;12.84;77.07
65546;BME280;52177;55.968;37.498;2023-07-13T00:11:11;98783.97;;;12.82;77.03
65546;BME280;52177;55.968;37.498;2023-07-13T00:11:42;98780.25;;;12.83;76.93
65546;BME280;52177;55.968;37.498;2023-07-13T00:12:34;98782.34;;;12.81;77.04
65546;BME280;52177;55.968;37.498;2023-07-13T00:13:05;98785.00;;;12.81;77.03
65546;BME280;52177;55.968;37.498;2023-07-13T00:13:35;98786.03;;;12.80;77.13
65546;BME280;52177;55.968;37.498;2023-07-13T00:14:09;98791.38;;;12.80;77.40
65546;BME280;52177;55.968;37.498;2023-07-13T00:14:39;98791.38;;;12.80;77.58
65546;BME280;52177;55.968;37.498;2023-07-13T00:15:14;98786.03;;;12.80;77.44
65546;BME280;52177;55.968;37.498;2023-07-13T00:15:46;98780.47;;;12.81;77.57
65546;BME280;52177;55.968;37.498;2023-07-13T00:16:16;98793.63;;;12.83;77.68
65546;BME280;52177;55.968;37.498;2023-07-13T00:16:48;98789.13;;;12.83;77.82
65546;BME280;52177;55.968;37.498;2023-07-13T00:17:19;98781.91;;;12.84;77.74
65546;BME280;52177;55.968;37.498;2023-07-13T00:17:51;98787.25;;;12.84;77.53
65546;BME280;52177;55.968;37.498;2023-07-13T00:18:21;98791.56;;;12.85;77.68
65546;BME280;52177;55.968;37.498;2023-07-13T00:18:52;98786.19;;;12.85;77.59
65546;BME280;52177;55.968;37.498;2023-07-13T00:19:22;98786.19;;;12.85;77.68
65546;BME280;52177;55.968;37.498;2023-07-13T00:19:53;98787.03;;;12.85;77.56
65546;BME280;52177;55.968;37.498;2023-07-13T00:20:24;98788.88;;;12.85;77.40
65546;BME280;52177;55.968;37.498;2023-07-13T00:20:58;98784.56;;;12.84;77.56
65546;BME280;52177;55.968;37.498;2023-07-13T00:21:35;98789.94;;;12.84;77.62
65546;BME280;52177;55.968;37.498;2023-07-13T00:22:05;98788.25;;;12.83;77.53
65546;BME280;52177;55.968;37.498;2023-07-13T00:22:36;98784.56;;;12.84;77.65
65546;BME280;52177;55.968;37.498;2023-07-13T00:23:07;98788.69;;;12.86;77.67
65546;BME280;52177;55.968;37.498;2023-07-13T00:23:39;98776.94;;;12.87;77.55
65546;BME280;52177;55.968;37.498;2023-07-13T00:24:12;98787.88;;;12.86;77.40
65546;BME280;52177;55.968;37.498;2023-07-13T00:24:44;98777.97;;;12.86;77.40
65546;BME280;52177;55.968;37.498;2023-07-13T00:25:15;98780.66;;;12.86;77.49
65546;BME280;52177;55.968;37.498;2023-07-13T00:25:45;98782.50;;;12.86;77.49
65546;BME280;52177;55.968;37.498;2023-07-13T00:26:16;98780.66;;;12.86;77.39
65546;BME280;52177;55.968;37.498;2023-07-13T00:26:47;98780.25;;;12.83;77.33
65546;BME280;52177;55.968;37.498;2023-07-13T00:27:18;98787.47;;;12.82;77.38
65546;BME280;52177;55.968;37.498;2023-07-13T00:27:48;98780.47;;;12.81;77.49
65546;BME280;52177;55.968;37.498;2023-07-13T00:28:18;98788.50;;;12.81;77.32
65546;BME280;52177;55.968;37.498;2023-07-13T00:28:49;98778.00;;;12.80;77.44
65546;BME280;52177;55.968;37.498;2023-07-13T00:29:20;98786.63;;;12.82;77.38
65546;BME280;52177;55.968;37.498;2023-07-13T00:29:51;98784.16;;;12.80;77.47
65546;BME280;52177;55.968;37.498;2023-07-13T00:30:21;98779.66;;;12.81;77.48
65546;BME280;52177;55.968;37.498;2023-07-13T00:30:52;98782.91;;;12.83;77.45
65546;BME280;52177;55.968;37.498;2023-07-13T00:31:22;98779.44;;;12.82;77.46
65546;BME280;52177;55.968;37.498;2023-07-13T00:31:53;98781.09;;;12.83;77.33
65546;BME280;52177;55.968;37.498;2023-07-13T00:32:23;98775.75;;;12.83;77.28
65546;BME280;52177;55.968;37.498;2023-07-13T00:32:55;98779.22;;;12.84;77.28
65546;BME280;52177;55.968;37.498;2023-07-13T00:33:27;98781.09;;;12.83;77.26
65546;BME280;52177;55.968;37.498;2023-07-13T00:33:58;98775.75;;;12.83;77.42
65546;BME280;52177;55.968;37.498;2023-07-13T00:34:29;98781.69;;;12.85;77.50
65546;BME280;52177;55.968;37.498;2023-07-13T00:35:01;98778.78;;;12.87;77.57
65546;BME280;52177;55.968;37.498;2023-07-13T00:35:31;98777.97;;;12.86;77.59
65546;BME280;52177;55.968;37.498;2023-07-13T00:36:02;98777.78;;;12.88;77.30
65546;BME280;52177;55.968;37.498;2023-07-13T00:36:33;98777.78;;;12.88;77.34
65546;BME280;52177;55.968;37.498;2023-07-13T00:37:06;98777.78;;;12.88;77.39
65546;BME280;52177;55.968;37.498;2023-07-13T00:37:36;98776.94;;;12.87;77.26
65546;BME280;52177;55.968;37.498;2023-07-13T00:38:07;98772.63;;;12.86;77.35
65546;BME280;52177;55.968;37.498;2023-07-13T00:38:37;98777.97;;;12.86;77.21
65546;BME280;52177;55.968;37.498;2023-07-13T00:39:08;98774.25;;;12.87;77.39
65546;BME280;52177;55.968;37.498;2023-07-13T00:39:38;98772.63;;;12.86;77.44
65546;BME280;52177;55.968;37.498;2023-07-13T00:40:11;98778.19;;;12.85;77.59
65546;BME280;52177;55.968;37.498;2023-07-13T00:40:42;98780.84;;;12.85;77.54
65546;BME280;52177;55.968;37.498;2023-07-13T00:41:13;98780.84;;;12.85;77.74
65546;BME280;52177;55.968;37.498;2023-07-13T00:41:43;98780.84;;;12.85;77.80
65546;BME280;52177;55.968;37.498;2023-07-13T00:42:14;98771.81;;;12.86;77.85
65546;BME280;52177;55.968;37.498;2023-07-13T00:42:45;98778.78;;;12.87;77.67
65546;BME280;52177;55.968;37.498;2023-07-13T00:43:19;98779.84;;;12.86;77.55
65546;BME280;52177;55.968;37.498;2023-07-13T00:43:49;98776.56;;;12.84;77.52
65546;BME280;52177;55.968;37.498;2023-07-13T00:44:20;98779.03;;;12.85;77.51
65546;BME280;52177;55.968;37.498;2023-07-13T00:46:24;98772.81;;;12.85;77.48
65546;BME280;52177;55.968;37.498;2023-07-13T00:46:54;98774.91;;;12.83;77.51
65546;BME280;52177;55.968;37.498;2023-07-13T00:47:25;98779.44;;;12.82;77.57
65546;BME280;52177;55.968;37.498;2023-07-13T00:47:56;98777.81;;;12.81;77.74
65546;BME280;52177;55.968;37.498;2023-07-13T00:48:32;98773.28;;;12.82;77.81
65546;BME280;52177;55.968;37.498;2023-07-13T00:49:05;98767.91;;;12.82;77.79
65546;BME280;52177;55.968;37.498;2023-07-13T00:49:37;98775.34;;;12.80;77.94
65546;BME280;52177;55.968;37.498;2023-07-13T00:50:10;98772.66;;;12.80;77.96
65546;BME280;52177;55.968;37.498;2023-07-13T00:50:44;98769.16;;;12.79;78.00
65546;BME280;52177;55.968;37.498;2023-07-13T00:51:19;98772.66;;;12.80;78.05
65546;BME280;52177;55.968;37.498;2023-07-13T00:51:57;98774.53;;;12.79;78.00
65546;BME280;52177;55.968;37.498;2023-07-13T00:52:28;98772.44;;;12.81;78.20
65546;BME280;52177;55.968;37.498;2023-07-13T00:52:59;98771.63;;;12.81;78.18
65546;BME280;52177;55.968;37.498;2023-07-13T00:53:31;98774.09;;;12.82;78.04
65546;BME280;52177;55.968;37.498;2023-07-13T00:54:05;98774.91;;;12.83;77.96
65546;BME280;52177;55.968;37.498;2023-07-13T00:54:43;98774.31;;;12.81;77.95
65546;BME280;52177;55.968;37.498;2023-07-13T00:55:15;98777.38;;;12.84;77.87
65546;BME280;52177;55.968;37.498;2023-07-13T00:55:49;98773.06;;;12.83;77.83
65546;BME280;52177;55.968;37.498;2023-07-13T00:56:20;98772.22;;;12.83;77.80
65546;BME280;52177;55.968;37.498;2023-07-13T00:56:52;98769.53;;;12.83;77.85
65546;BME280;52177;55.968;37.498;2023-07-13T00:57:23;98772.22;;;12.83;78.03
65546;BME280;52177;55.968;37.498;2023-07-13T00:57:54;98767.72;;;12.83;78.10
65546;BME280;52177;55.968;37.498;2023-07-13T00:58:26;98773.06;;;12.83;78.20
65546;BME280;52177;55.968;37.498;2023-07-13T00:58:57;98766.66;;;12.84;77.95
65546;BME280;52177;55.968;37.498;2023-07-13T00:59:30;98773.06;;;12.83;77.98
65546;BME280;52177;55.968;37.498;2023-07-13T01:00:04;98766.66;;;12.84;78.07
65546;BME280;52177;55.968;37.498;2023-07-13T01:00:38;98764.19;;;12.83;78.03
65546;BME280;52177;55.968;37.498;2023-07-13T01:01:08;98767.72;;;12.83;78.17
65546;BME280;52177;55.968;37.498;2023-07-13T01:01:39;98769.34;;;12.84;78.03
65546;BME280;52177;55.968;37.498;2023-07-13T01:02:10;98772.03;;;12.84;78.00
65546;BME280;52177;55.968;37.498;2023-07-13T01:02:45;98768.53;;;12.84;78.05
65546;BME280;52177;55.968;37.498;2023-07-13T01:03:17;98772.03;;;12.84;78.10
65546;BME280;52177;55.968;37.498;2023-07-13T01:03:48;98766.66;;;12.84;78.23
65546;BME280;52177;55.968;37.498;2023-07-13T01:04:19;98766.66;;;12.84;78.14
65546;BME280;52177;55.968;37.498;2023-07-13T01:04:49;98771.81;;;12.86;78.24
65546;BME280;52177;55.968;37.498;2023-07-13T01:05:21;98766.47;;;12.86;78.13
65546;BME280;52177;55.968;37.498;2023-07-13T01:05:52;98761.94;;;12.86;78.13
65546;BME280;52177;55.968;37.498;2023-07-13T01:06:24;98766.47;;;12.86;78.02
65546;BME280;52177;55.968;37.498;2023-07-13T01:06:54;98765.66;;;12.85;78.16
65546;BME280;52177;55.968;37.498;2023-07-13T01:07:25;98753.28;;;12.84;78.15
65546;BME280;52177;55.968;37.498;2023-07-13T01:07:56;98762.13;;;12.85;78.27
65546;BME280;52177;55.968;37.498;2023-07-13T01:08:26;98761.13;;;12.86;78.34
65546;BME280;52177;55.968;37.498;2023-07-13T01:08:58;98758.44;;;12.86;78.55
65546;BME280;52177;55.968;37.498;2023-07-13T01:09:28;98765.41;;;12.87;78.36
65546;BME280;52177;55.968;37.498;2023-07-13T01:09:59;98760.31;;;12.85;78.40
65546;BME280;52177;55.968;37.498;2023-07-13T01:10:29;98763.56;;;12.87;78.25
65546;BME280;52177;55.968;37.498;2023-07-13T01:11:08;98758.00;;;12.89;78.43
65546;BME280;52177;55.968;37.498;2023-07-13T01:11:39;98757.19;;;12.88;78.19
65546;BME280;52177;55.968;37.498;2023-07-13T01:12:11;98763.34;;;12.89;78.21
65546;BME280;52177;55.968;37.498;2023-07-13T01:12:41;98756.38;;;12.88;78.33
65546;BME280;52177;55.968;37.498;2023-07-13T01:13:12;98758.00;;;12.89;78.22
65546;BME280;52177;55.968;37.498;2023-07-13T01:13:43;98756.13;;;12.89;78.15
65546;BME280;52177;55.968;37.498;2023-07-13T01:14:14;98762.34;;;12.90;78.16
65546;BME280;52177;55.968;37.498;2023-07-13T01:14:44;98760.47;;;12.91;78.09
65546;BME280;52177;55.968;37.498;2023-07-13T01:15:40;98755.94;;;12.91;78.21
65546;BME280;52177;55.968;37.498;2023-07-13T01:16:24;98756.13;;;12.89;78.07
65546;BME280;52177;55.968;37.498;2023-07-13T01:16:56;98756.38;;;12.88;78.04
65546;BME280;52177;55.968;37.498;2023-07-13T01:17:31;98756.56;;;12.86;78.01
65546;BME280;52177;55.968;37.498;2023-07-13T01:18:05;98759.06;;;12.88;78.04
65546;BME280;52177;55.968;37.498;2023-07-13T01:18:37;98759.88;;;12.88;77.98
65546;BME280;52177;55.968;37.498;2023-07-13T01:19:15;98759.88;;;12.88;78.01
65546;BME280;52177;55.968;37.498;2023-07-13T01:19:48;98756.38;;;12.88;77.98
65546;BME280;52177;55.968;37.498;2023-07-13T01:20:18;98757.19;;;12.88;78.08
65546;BME280;52177;55.968;37.498;2023-07-13T01:20:54;98761.72;;;12.88;78.06
65546;BME280;52177;55.968;37.498;2023-07-13T01:21:28;98758.44;;;12.86;78.20
65546;BME280;52177;55.968;37.498;2023-07-13T01:21:58;98760.06;;;12.87;78.32
65546;BME280;52177;55.968;37.498;2023-07-13T01:22:29;98754.72;;;12.87;78.23
65546;BME280;52177;55.968;37.498;2023-07-13T01:22:59;98760.88;;;12.87;78.35
65546;BME280;52177;55.968;37.498;2023-07-13T01:23:32;98758.22;;;12.87;78.38
65546;BME280;52177;55.968;37.498;2023-07-13T01:24:03;98765.41;;;12.87;78.13
65546;BME280;52177;55.968;37.498;2023-07-13T01:24:34;98758.44;;;12.86;78.35
65546;BME280;52177;55.968;37.498;2023-07-13T01:25:06;98762.75;;;12.87;78.03
65546;BME280;52177;55.968;37.498;2023-07-13T01:25:37;98752.84;;;12.87;78.08
65546;BME280;52177;55.968;37.498;2023-07-13T01:26:08;98759.06;;;12.88;77.92
65546;BME280;52177;55.968;37.498;2023-07-13T01:26:38;98758.22;;;12.87;78.10
65546;BME280;52177;55.968;37.498;2023-07-13T01:27:10;98755.75;;;12.86;77.87
65546;BME280;52177;55.968;37.498;2023-07-13T01:27:41;98756.56;;;12.86;78.18
65546;BME280;52177;55.968;37.498;2023-07-13T01:28:11;98761.72;;;12.88;78.06
65546;BME280;52177;55.968;37.498;2023-07-13T01:28:43;98754.94;;;12.85;78.28
65546;BME280;52177;55.968;37.498;2023-07-13T01:29:13;98760.31;;;12.85;78.33
65546;BME280;52177;55.968;37.498;2023-07-13T01:29:44;98769.13;;;12.86;78.40
65546;BME280;52177;55.968;37.498;2023-07-13T01:30:16;98755.75;;;12.86;78.43
65546;BME280;52177;55.968;37.498;2023-07-13T01:30:47;98759.47;;;12.85;78.29
65546;BME280;52177;55.968;37.498;2023-07-13T01:31:17;98752.47;;;12.84;78.29
65546;BME280;52177;55.968;37.498;2023-07-13T01:31:47;98760.50;;;12.84;78.21
65546;BME280;52177;55.968;37.498;2023-07-13T01:32:20;98756.78;;;12.85;78.19
65546;BME280;52177;55.968;37.498;2023-07-13T01:32:54;98762.97;;;12.85;78.31
65546;BME280;52177;55.968;37.498;2023-07-13T01:33:24;98759.47;;;12.85;78.40
65546;BME280;52177;55.968;37.498;2023-07-13T01:33:55;98765.66;;;12.85;78.42
65546;BME280;52177;55.968;37.498;2023-07-13T01:34:27;98760.31;;;12.85;78.56
65546;BME280;52177;55.968;37.498;2023-07-13T01:34:57;98756.78;;;12.85;78.48
65546;BME280;52177;55.968;37.498;2023-07-13T01:35:28;98756.56;;;12.86;78.44
65546;BME280;52177;55.968;37.498;2023-07-13T01:35:58;98756.38;;;12.88;78.53
65546;BME280;52177;55.968;37.498;2023-07-13T01:36:29;98756.97;;;12.90;78.34
65546;BME280;52177;55.968;37.498;2023-07-13T01:36:59;98755.31;;;12.89;78.44
65546;BME280;52177;55.968;37.498;2023-07-13T01:37:29;98754.31;;;12.90;78.05
65546;BME280;52177;55.968;37.498;2023-07-13T01:38:04;98753.25;;;12.91;78.16
65546;BME280;52177;55.968;37.498;2023-07-13T01:38:35;98755.94;;;12.91;78.17
65546;BME280;52177;55.968;37.498;2023-07-13T01:39:06;98755.94;;;12.91;78.09
65546;BME280;52177;55.968;37.498;2023-07-13T01:39:36;98753.88;;;12.93;78.09
65546;BME280;52177;55.968;37.498;2023-07-13T01:40:08;98756.53;;;12.93;77.99
65546;BME280;52177;55.968;37.498;2023-07-13T01:40:39;98755.94;;;12.91;78.06
65546;BME280;52177;55.968;37.498;2023-07-13T01:41:09;98754.88;;;12.92;78.02
65546;BME280;52177;55.968;37.498;2023-07-13T01:41:40;98752.81;;;12.94;78.11
65546;BME280;52177;55.968;37.498;2023-07-13T01:42:10;98753.88;;;12.93;78.11
65546;BME280;52177;55.968;37.498;2023-07-13T01:42:40;98753.88;;;12.93;77.99
65546;BME280;52177;55.968;37.498;2023-07-13T01:43:11;98760.03;;;12.94;78.05
65546;BME280;52177;55.968;37.498;2023-07-13T01:43:41;98754.88;;;12.92;77.79
65546;BME280;52177;55.968;37.498;2023-07-13T01:44:12;98754.31;;;12.90;78.02
65546;BME280;52177;55.968;37.498;2023-07-13T01:44:42;98749.78;;;12.91;77.98
65546;BME280;52177;55.968;37.498;2023-07-13T01:45:13;98752.44;;;12.91;78.37
65546;BME280;52177;55.968;37.498;2023-07-13T01:45:44;98755.94;;;12.91;78.45
65546;BME280;52177;55.968;37.498;2023-07-13T01:46:14;98754.06;;;12.92;78.54
65546;BME280;52177;55.968;37.498;2023-07-13T01:46:45;98748.53;;;12.93;78.59
65546;BME280;52177;55.968;37.498;2023-07-13T01:47:16;98752.00;;;12.94;78.48
65546;BME280;52177;55.968;37.498;2023-07-13T01:47:46;98752.81;;;12.94;78.46
65546;BME280;52177;55.968;37.498;2023-07-13T01:48:16;98752.81;;;12.94;78.52
65546;BME280;52177;55.968;37.498;2023-07-13T01:48:47;98749.34;;;12.94;78.40
65546;BME280;52177;55.968;37.498;2023-07-13T01:49:17;98742.97;;;12.95;78.27
65546;BME280;52177;55.968;37.498;2023-07-13T01:49:48;98743.78;;;12.95;78.32
65546;BME280;52177;55.968;37.498;2023-07-13T01:50:18;98749.13;;;12.95;78.28
65546;BME280;52177;55.968;37.498;2023-07-13T01:50:48;98749.13;;;12.95;78.25
65546;BME280;52177;55.968;37.498;2023-07-13T01:51:19;98748.31;;;12.95;78.46
65546;BME280;52177;55.968;37.498;2023-07-13T01:51:50;98749.72;;;12.97;78.60
65546;BME280;52177;55.968;37.498;2023-07-13T01:52:20;98753.22;;;12.98;78.45
65546;BME280;52177;55.968;37.498;2023-07-13T01:52:51;98744.97;;;12.99;78.47
65546;BME280;52177;55.968;37.498;2023-07-13T01:53:21;98749.28;;;13.00;78.50
65546;BME280;52177;55.968;37.498;2023-07-13T01:53:51;98747.44;;;13.01;78.54
65546;BME280;52177;55.968;37.498;2023-07-13T01:54:22;98748.25;;;13.01;78.62
65546;BME280;52177;55.968;37.498;2023-07-13T01:54:52;98743.75;;;13.02;78.45
65546;BME280;52177;55.968;37.498;2023-07-13T01:55:23;98746.41;;;13.02;78.41
65546;BME280;52177;55.968;37.498;2023-07-13T01:55:53;98738.16;;;13.03;78.33
65546;BME280;52177;55.968;37.498;2023-07-13T01:56:23;98746.19;;;13.03;78.22
65546;BME280;52177;55.968;37.498;2023-07-13T01:56:54;98743.31;;;13.05;78.14
65546;BME280;52177;55.968;37.498;2023-07-13T01:57:24;98744.13;;;13.05;78.12
65546;BME280;52177;55.968;37.498;2023-07-13T01:57:55;98742.84;;;13.08;77.74
65546;BME280;52177;55.968;37.498;2023-07-13T01:58:26;98739.38;;;13.07;77.47
65546;BME280;52177;55.968;37.498;2023-07-13T01:58:56;98737.94;;;13.05;77.60
65546;BME280;52177;55.968;37.498;2023-07-13T01:59:27;98737.13;;;13.04;77.77
65546;BME280;52177;55.968;37.498;2023-07-13T01:59:57;98743.50;;;13.03;77.92
65546;BME280;52177;55.968;37.498;2023-07-13T02:00:27;98738.97;;;13.04;77.69
65546;BME280;52177;55.968;37.498;2023-07-13T02:00:58;98738.16;;;13.03;77.96
65546;BME280;52177;55.968;37.498;2023-07-13T02:01:28;98735.47;;;13.03;77.86
65546;BME280;52177;55.968;37.498;2023-07-13T02:01:58;98738.97;;;13.04;77.93
65546;BME280;52177;55.968;37.498;2023-07-13T02:02:29;98737.34;;;13.03;77.75
65546;BME280;52177;55.968;37.498;2023-07-13T02:02:59;98738.38;;;13.02;78.10
65546;BME280;52177;55.968;37.498;2023-07-13T02:03:30;98732.00;;;13.03;78.25
65546;BME280;52177;55.968;37.498;2023-07-13T02:04:01;98737.94;;;13.05;78.31
65546;BME280;52177;55.968;37.498;2023-07-13T02:04:33;98736.09;;;13.05;78.24
65546;BME280;52177;55.968;37.498;2023-07-13T02:05:05;98729.72;;;13.06;78.15
65546;BME280;52177;55.968;37.498;2023-07-13T02:05:36;98741.00;;;13.08;78.05
65546;BME280;52177;55.968;37.498;2023-07-13T02:06:06;98738.31;;;13.08;78.08
65546;BME280;52177;55.968;37.498;2023-07-13T02:06:36;98737.31;;;13.09;78.07
65546;BME280;52177;55.968;37.498;2023-07-13T02:07:08;98735.44;;;13.10;77.90
65546;BME280;52177;55.968;37.498;2023-07-13T02:07:39;98732.56;;;13.12;77.72
65546;BME280;52177;55.968;37.498;2023-07-13T02:08:10;98734.41;;;13.11;77.68
65546;BME280;52177;55.968;37.498;2023-07-13T02:08:41;98732.75;;;13.10;77.75
65546;BME280;52177;55.968;37.498;2023-07-13T02:09:12;98728.22;;;13.10;77.49
65546;BME280;52177;55.968;37.498;2023-07-13T02:09:43;98730.91;;;13.10;77.60
65546;BME280;52177;55.968;37.498;2023-07-13T02:10:13;98731.75;;;13.11;77.42
65546;BME280;52177;55.968;37.498;2023-07-13T02:10:44;98724.72;;;13.10;77.59
65546;BME280;52177;55.968;37.498;2023-07-13T02:11:14;98721.25;;;13.09;77.70
65546;BME280;52177;55.968;37.498;2023-07-13T02:11:44;98722.25;;;13.08;77.71
65546;BME280;52177;55.968;37.498;2023-07-13T02:12:15;98729.28;;;13.09;77.84
65546;BME280;52177;55.968;37.498;2023-07-13T02:12:45;98726.81;;;13.08;77.76
65546;BME280;52177;55.968;37.498;2023-07-13T02:13:15;98727.63;;;13.08;77.57
65546;BME280;52177;55.968;37.498;2023-07-13T02:13:46;98726.81;;;13.08;77.65
65546;BME280;52177;55.968;37.498;2023-07-13T02:14:16;98726.81;;;13.08;77.71
65546;BME280;52177;55.968;37.498;2023-07-13T02:14:47;98727.25;;;13.05;77.75
65546;BME280;52177;55.968;37.498;2023-07-13T02:15:17;98732.59;;;13.05;77.76
65546;BME280;52177;55.968;37.498;2023-07-13T02:15:50;98726.44;;;13.04;77.75
65546;BME280;52177;55.968;37.498;2023-07-13T02:16:21;98727.25;;;13.05;77.72
65546;BME280;52177;55.968;37.498;2023-07-13T02:16:51;98726.44;;;13.04;77.66
65546;BME280;52177;55.968;37.498;2023-07-13T02:17:22;98729.09;;;13.04;77.74
65546;BME280;52177;55.968;37.498;2023-07-13T02:17:52;98728.06;;;13.05;77.79
65546;BME280;52177;55.968;37.498;2023-07-13T02:18:22;98721.09;;;13.04;77.66
65546;BME280;52177;55.968;37.498;2023-07-13T02:18:53;98724.56;;;13.05;77.82
65546;BME280;52177;55.968;37.498;2023-07-13T02:19:25;98726.44;;;13.04;77.59
65546;BME280;52177;55.968;37.498;2023-07-13T02:19:55;98719.44;;;13.03;77.85
65546;BME280;52177;55.968;37.498;2023-07-13T02:20:25;98720.25;;;13.04;77.77
65546;BME280;52177;55.968;37.498;2023-07-13T02:20:56;98718.63;;;13.03;78.02
65546;BME280;52177;55.968;37.498;2023-07-13T02:21:27;98725.59;;;13.04;77.91
65546;BME280;52177;55.968;37.498;2023-07-13T02:21:57;98717.56;;;13.04;78.02
65546;BME280;52177;55.968;37.498;2023-07-13T02:22:27;98721.09;;;13.04;77.72
65546;BME280;52177;55.968;37.498;2023-07-13T02:22:58;98716.53;;;13.05;77.78
65546;BME280;52177;55.968;37.498;2023-07-13T02:23:29;98720.25;;;13.04;77.68
65546;BME280;52177;55.968;37.498;2023-07-13T02:23:59;98718.41;;;13.04;77.68
65546;BME280;52177;55.968;37.498;2023-07-13T02:24:30;98721.28;;;13.03;77.74
65546;BME280;52177;55.968;37.498;2023-07-13T02:25:01;98724.78;;;13.03;77.75
65546;BME280;52177;55.968;37.498;2023-07-13T02:25:31;98722.09;;;13.03;77.93
65546;BME280;52177;55.968;37.498;2023-07-13T02:26:03;98718.63;;;13.03;77.83
65546;BME280;52177;55.968;37.498;2023-07-13T02:26:34;98722.91;;;13.04;77.95
65546;BME280;52177;55.968;37.498;2023-07-13T02:27:04;98719.22;;;13.05;78.00
65546;BME280;52177;55.968;37.498;2023-07-13T02:27:35;98720.84;;;13.06;78.02
65546;BME280;52177;55.968;37.498;2023-07-13T02:28:05;98714.47;;;13.07;77.87
65546;BME280;52177;55.968;37.498;2023-07-13T02:28:36;98717.16;;;13.07;78.02
65546;BME280;52177;55.968;37.498;2023-07-13T02:29:06;98716.91;;;13.08;77.93
65546;BME280;52177;55.968;37.498;2023-07-13T02:29:36;98715.91;;;13.09;77.87
65546;BME280;52177;55.968;37.498;2023-07-13T02:30:07;98719.19;;;13.12;78.02
65546;BME280;52177;55.968;37.498;2023-07-13T02:30:38;98722.88;;;13.10;77.64
65546;BME280;52177;55.968;37.498;2023-07-13T02:31:11;98720.19;;;13.10;77.83
65546;BME280;52177;55.968;37.498;2023-07-13T02:31:41;98718.56;;;13.09;77.92
65546;BME280;52177;55.968;37.498;2023-07-13T02:32:12;98709.50;;;13.10;77.75
65546;BME280;52177;55.968;37.498;2023-07-13T02:32:42;98715.69;;;13.11;77.82
65546;BME280;52177;55.968;37.498;2023-07-13T02:33:14;98721.84;;;13.12;77.63
65546;BME280;52177;55.968;37.498;2023-07-13T02:33:45;98720.00;;;13.12;77.74
65546;BME280;52177;55.968;37.498;2023-07-13T02:34:15;98715.69;;;13.11;77.74
65546;BME280;52177;55.968;37.498;2023-07-13T02:34:45;98718.13;;;13.13;77.66
65546;BME280;52177;55.968;37.498;2023-07-13T02:35:16;98715.44;;;13.13;77.66
65546;BME280;52177;55.968;37.498;2023-07-13T02:35:46;98720.81;;;13.13;77.60
65546;BME280;52177;55.968;37.498;2023-07-13T02:36:17;98718.94;;;13.13;77.58
65546;BME280;52177;55.968;37.498;2023-07-13T02:36:48;98720.81;;;13.13;77.61
65546;BME280;52177;55.968;37.498;2023-07-13T02:37:19;98715.44;;;13.13;77.57
65546;BME280;52177;55.968;37.498;2023-07-13T02:37:50;98718.38;;;13.11;77.63
65546;BME280;52177;55.968;37.498;2023-07-13T02:38:20;98715.69;;;13.11;77.47
65546;BME280;52177;55.968;37.498;2023-07-13T02:38:50;98708.47;;;13.12;77.57
65546;BME280;52177;55.968;37.498;2023-07-13T02:39:21;98715.69;;;13.11;77.64
65546;BME280;52177;55.968;37.498;2023-07-13T02:39:51;98711.34;;;13.10;77.67
65546;BME280;52177;55.968;37.498;2023-07-13T02:40:22;98716.09;;;13.08;77.67
65546;BME280;52177;55.968;37.498;2023-07-13T02:40:52;98708.88;;;13.08;77.82
65546;BME280;52177;55.968;37.498;2023-07-13T02:41:23;98714.25;;;13.08;77.79
65546;BME280;52177;55.968;37.498;2023-07-13T02:41:53;98713.22;;;13.09;77.80
65546;BME280;52177;55.968;37.498;2023-07-13T02:42:23;98716.09;;;13.08;77.87
65546;BME280;52177;55.968;37.498;2023-07-13T02:42:54;98716.91;;;13.08;77.76
65546;BME280;52177;55.968;37.498;2023-07-13T02:43:24;98708.69;;;13.10;77.72
65546;BME280;52177;55.968;37.498;2023-07-13T02:43:54;98717.16;;;13.07;77.71
65546;BME280;52177;55.968;37.498;2023-07-13T02:44:32;98711.00;;;13.06;77.60
65546;BME280;52177;55.968;37.498;2023-07-13T02:45:03;98720.63;;;13.07;77.87
65546;BME280;52177;55.968;37.498;2023-07-13T02:45:34;98714.47;;;13.07;77.68